sensor_id;sensor_type;location;lat;lon;timestamp;P1;durP1;ratioP1;P2;durP2;ratioP2
75890;SDS011;64571;47.512;19.054;2023-05-16T00:02:52;5.90;;;3.75;;
75890;SDS011;64571;47.512;19.054;2023-05-16T00:05:55;6.15;;;3.50;;
75890;SDS011;64571;47.512;19.054;2023-05-16T00:08:58;6.22;;;3.15;;
75890;SDS011;64571;47.512;19.054;2023-05-16T00:12:01;6.60;;;3.53;;
75890;SDS011;64571;47.512;19.054;2023-05-16T00:15:04;7.03;;;3.37;;
75890;SDS011;64571;47.512;19.054;2023-05-16T00:18:13;7.87;;;3.60;;
75890;SDS011;64571;47.512;19.054;2023-05-16T00:21:17;6.10;;;3.62;;
75890;SDS011;64571;47.512;19.054;2023-05-16T00:24:22;7.93;;;3.40;;
75890;SDS011;64571;47.512;19.054;2023-05-16T00:27:25;5.80;;;3.10;;
75890;SDS011;64571;47.512;19.054;2023-05-16T00:30:28;6.32;;;3.30;;
75890;SDS011;64571;47.512;19.054;2023-05-16T00:33:30;6.28;;;3.28;;
75890;SDS011;64571;47.512;19.054;2023-05-16T00:36:33;6.35;;;3.33;;
75890;SDS011;64571;47.512;19.054;2023-05-16T00:39:36;7.43;;;2.90;;
75890;SDS011;64571;47.512;19.054;2023-05-16T00:42:39;8.13;;;3.10;;
75890;SDS011;64571;47.512;19.054;2023-05-16T00:45:41;5.62;;;3.03;;
75890;SDS011;64571;47.512;19.054;2023-05-16T00:48:44;5.40;;;2.97;;
75890;SDS011;64571;47.512;19.054;2023-05-16T00:51:47;6.15;;;2.40;;
75890;SDS011;64571;47.512;19.054;2023-05-16T00:54:51;5.25;;;2.80;;
75890;SDS011;64571;47.512;19.054;2023-05-16T00:57:54;5.10;;;2.83;;
75890;SDS011;64571;47.512;19.054;2023-05-16T01:00:59;5.47;;;2.30;;
75890;SDS011;64571;47.512;19.054;2023-05-16T01:04:05;5.60;;;2.72;;
75890;SDS011;64571;47.512;19.054;2023-05-16T01:07:09;4.68;;;2.58;;
75890;SDS011;64571;47.512;19.054;2023-05-16T01:10:11;5.30;;;2.55;;
75890;SDS011;64571;47.512;19.054;2023-05-16T01:13:21;6.57;;;3.33;;
75890;SDS011;64571;47.512;19.054;2023-05-16T01:16:49;7.10;;;3.15;;
75890;SDS011;64571;47.512;19.054;2023-05-16T01:26:36;6.72;;;3.60;;
75890;SDS011;64571;47.512;19.054;2023-05-16T01:29:40;6.57;;;3.20;;
75890;SDS011;64571;47.512;19.054;2023-05-16T01:32:44;5.30;;;3.00;;
75890;SDS011;64571;47.512;19.054;2023-05-16T01:35:55;6.32;;;3.28;;
75890;SDS011;64571;47.512;19.054;2023-05-16T01:39:10;6.80;;;2.70;;
75890;SDS011;64571;47.512;19.054;2023-05-16T01:42:20;5.57;;;3.30;;
75890;SDS011;64571;47.512;19.054;2023-05-16T01:45:29;8.37;;;3.20;;
75890;SDS011;64571;47.512;19.054;2023-05-16T01:48:38;6.07;;;2.70;;
75890;SDS011;64571;47.512;19.054;2023-05-16T01:51:55;8.63;;;3.00;;
75890;SDS011;64571;47.512;19.054;2023-05-16T01:55:07;6.18;;;3.37;;
75890;SDS011;64571;47.512;19.054;2023-05-16T01:58:13;7.30;;;3.50;;
75890;SDS011;64571;47.512;19.054;2023-05-16T02:01:17;6.80;;;3.57;;
75890;SDS011;64571;47.512;19.054;2023-05-16T02:04:20;6.82;;;3.62;;
75890;SDS011;64571;47.512;19.054;2023-05-16T02:07:23;5.82;;;3.65;;
75890;SDS011;64571;47.512;19.054;2023-05-16T02:10:26;6.18;;;3.42;;
75890;SDS011;64571;47.512;19.054;2023-05-16T02:13:28;6.62;;;3.70;;
75890;SDS011;64571;47.512;19.054;2023-05-16T02:16:37;7.23;;;3.50;;
75890;SDS011;64571;47.512;19.054;2023-05-16T02:19:40;7.37;;;3.78;;
75890;SDS011;64571;47.512;19.054;2023-05-16T02:22:42;5.90;;;3.40;;
75890;SDS011;64571;47.512;19.054;2023-05-16T02:25:45;5.85;;;4.00;;
75890;SDS011;64571;47.512;19.054;2023-05-16T02:28:48;5.50;;;3.25;;
75890;SDS011;64571;47.512;19.054;2023-05-16T02:31:53;7.00;;;3.73;;
75890;SDS011;64571;47.512;19.054;2023-05-16T02:34:55;6.00;;;3.67;;
75890;SDS011;64571;47.512;19.054;2023-05-16T02:37:58;6.22;;;3.22;;
75890;SDS011;64571;47.512;19.054;2023-05-16T02:41:01;5.50;;;3.40;;
75890;SDS011;64571;47.512;19.054;2023-05-16T02:44:04;5.62;;;3.62;;
75890;SDS011;64571;47.512;19.054;2023-05-16T02:47:06;6.40;;;4.07;;
75890;SDS011;64571;47.512;19.054;2023-05-16T02:50:09;7.78;;;3.50;;
75890;SDS011;64571;47.512;19.054;2023-05-16T02:53:12;6.60;;;3.42;;
75890;SDS011;64571;47.512;19.054;2023-05-16T02:56:14;7.18;;;3.50;;
75890;SDS011;64571;47.512;19.054;2023-05-16T02:59:17;7.30;;;3.28;;
75890;SDS011;64571;47.512;19.054;2023-05-16T03:02:20;5.70;;;3.73;;
75890;SDS011;64571;47.512;19.054;2023-05-16T03:05:23;7.47;;;3.40;;
75890;SDS011;64571;47.512;19.054;2023-05-16T03:08:28;7.35;;;3.58;;
75890;SDS011;64571;47.512;19.054;2023-05-16T03:11:30;8.80;;;3.85;;
75890;SDS011;64571;47.512;19.054;2023-05-16T03:14:33;6.12;;;3.75;;
75890;SDS011;64571;47.512;19.054;2023-05-16T03:17:37;6.77;;;3.83;;
75890;SDS011;64571;47.512;19.054;2023-05-16T03:20:39;5.78;;;3.30;;
75890;SDS011;64571;47.512;19.054;2023-05-16T03:23:42;6.37;;;3.53;;
75890;SDS011;64571;47.512;19.054;2023-05-16T03:26:44;6.53;;;3.70;;
75890;SDS011;64571;47.512;19.054;2023-05-16T03:29:47;6.12;;;3.60;;
75890;SDS011;64571;47.512;19.054;2023-05-16T03:32:49;6.13;;;3.37;;
75890;SDS011;64571;47.512;19.054;2023-05-16T03:35:53;6.32;;;3.50;;
75890;SDS011;64571;47.512;19.054;2023-05-16T03:38:55;5.45;;;3.20;;
75890;SDS011;64571;47.512;19.054;2023-05-16T03:41:58;8.13;;;3.67;;
75890;SDS011;64571;47.512;19.054;2023-05-16T03:45:00;7.80;;;3.12;;
75890;SDS011;64571;47.512;19.054;2023-05-16T03:48:03;5.60;;;3.20;;
75890;SDS011;64571;47.512;19.054;2023-05-16T03:51:05;6.07;;;3.55;;
75890;SDS011;64571;47.512;19.054;2023-05-16T03:54:08;5.82;;;3.60;;
75890;SDS011;64571;47.512;19.054;2023-05-16T03:57:10;6.47;;;3.50;;
75890;SDS011;64571;47.512;19.054;2023-05-16T04:00:13;6.65;;;3.60;;
75890;SDS011;64571;47.512;19.054;2023-05-16T04:03:16;7.87;;;3.20;;
75890;SDS011;64571;47.512;19.054;2023-05-16T04:06:18;5.93;;;3.37;;
75890;SDS011;64571;47.512;19.054;2023-05-16T04:09:22;6.15;;;3.60;;
75890;SDS011;64571;47.512;19.054;2023-05-16T04:12:25;5.30;;;3.10;;
75890;SDS011;64571;47.512;19.054;2023-05-16T04:15:28;6.72;;;3.20;;
75890;SDS011;64571;47.512;19.054;2023-05-16T04:18:30;7.17;;;3.40;;
75890;SDS011;64571;47.512;19.054;2023-05-16T04:21:33;6.00;;;3.05;;
75890;SDS011;64571;47.512;19.054;2023-05-16T04:24:36;6.80;;;3.22;;
75890;SDS011;64571;47.512;19.054;2023-05-16T04:27:39;6.35;;;3.40;;
75890;SDS011;64571;47.512;19.054;2023-05-16T04:30:41;7.50;;;3.42;;
75890;SDS011;64571;47.512;19.054;2023-05-16T04:33:44;7.33;;;3.40;;
75890;SDS011;64571;47.512;19.054;2023-05-16T04:36:46;6.05;;;3.45;;
75890;SDS011;64571;47.512;19.054;2023-05-16T04:39:49;5.57;;;3.35;;
75890;SDS011;64571;47.512;19.054;2023-05-16T04:42:52;10.45;;;3.53;;
75890;SDS011;64571;47.512;19.054;2023-05-16T04:45:55;5.80;;;3.40;;
75890;SDS011;64571;47.512;19.054;2023-05-16T04:48:59;11.27;;;3.43;;
75890;SDS011;64571;47.512;19.054;2023-05-16T04:52:02;6.28;;;3.33;;
75890;SDS011;64571;47.512;19.054;2023-05-16T04:55:05;7.22;;;3.20;;
75890;SDS011;64571;47.512;19.054;2023-05-16T04:58:08;6.15;;;2.65;;
75890;SDS011;64571;47.512;19.054;2023-05-16T05:01:10;6.45;;;2.97;;
75890;SDS011;64571;47.512;19.054;2023-05-16T05:04:13;7.07;;;3.43;;
75890;SDS011;64571;47.512;19.054;2023-05-16T05:07:15;5.90;;;2.97;;
75890;SDS011;64571;47.512;19.054;2023-05-16T05:10:20;5.90;;;3.22;;
75890;SDS011;64571;47.512;19.054;2023-05-16T05:13:22;8.45;;;3.35;;
75890;SDS011;64571;47.512;19.054;2023-05-16T05:16:25;6.20;;;3.10;;
75890;SDS011;64571;47.512;19.054;2023-05-16T05:19:28;8.67;;;3.60;;
75890;SDS011;64571;47.512;19.054;2023-05-16T05:22:30;6.80;;;2.92;;
75890;SDS011;64571;47.512;19.054;2023-05-16T05:25:34;5.80;;;3.17;;
75890;SDS011;64571;47.512;19.054;2023-05-16T05:28:39;5.55;;;2.65;;
75890;SDS011;64571;47.512;19.054;2023-05-16T05:31:46;7.10;;;3.25;;
75890;SDS011;64571;47.512;19.054;2023-05-16T05:34:49;7.77;;;3.27;;
75890;SDS011;64571;47.512;19.054;2023-05-16T05:37:51;6.05;;;2.97;;
75890;SDS011;64571;47.512;19.054;2023-05-16T05:40:54;7.47;;;3.40;;
75890;SDS011;64571;47.512;19.054;2023-05-16T05:43:57;12.00;;;3.12;;
75890;SDS011;64571;47.512;19.054;2023-05-16T05:46:59;7.00;;;3.40;;
75890;SDS011;64571;47.512;19.054;2023-05-16T05:50:02;7.20;;;3.10;;
75890;SDS011;64571;47.512;19.054;2023-05-16T05:53:05;7.30;;;3.30;;
75890;SDS011;64571;47.512;19.054;2023-05-16T05:56:07;8.30;;;3.50;;
75890;SDS011;64571;47.512;19.054;2023-05-16T05:59:10;7.68;;;3.28;;
75890;SDS011;64571;47.512;19.054;2023-05-16T06:02:13;8.07;;;3.00;;
75890;SDS011;64571;47.512;19.054;2023-05-16T06:05:16;5.77;;;3.13;;
75890;SDS011;64571;47.512;19.054;2023-05-16T06:08:18;5.70;;;3.00;;
75890;SDS011;64571;47.512;19.054;2023-05-16T06:11:21;8.60;;;2.92;;
75890;SDS011;64571;47.512;19.054;2023-05-16T06:14:23;7.90;;;2.67;;
75890;SDS011;64571;47.512;19.054;2023-05-16T06:17:26;7.18;;;3.22;;
75890;SDS011;64571;47.512;19.054;2023-05-16T06:20:28;8.80;;;2.83;;
75890;SDS011;64571;47.512;19.054;2023-05-16T06:23:31;5.18;;;2.90;;
75890;SDS011;64571;47.512;19.054;2023-05-16T06:26:34;8.00;;;4.45;;
75890;SDS011;64571;47.512;19.054;2023-05-16T06:29:38;8.38;;;2.90;;
75890;SDS011;64571;47.512;19.054;2023-05-16T06:32:40;7.18;;;3.40;;
75890;SDS011;64571;47.512;19.054;2023-05-16T06:35:43;7.83;;;3.33;;
75890;SDS011;64571;47.512;19.054;2023-05-16T06:38:45;6.40;;;3.12;;
75890;SDS011;64571;47.512;19.054;2023-05-16T06:41:48;6.22;;;3.40;;
75890;SDS011;64571;47.512;19.054;2023-05-16T06:44:50;8.60;;;3.35;;
75890;SDS011;64571;47.512;19.054;2023-05-16T06:47:54;5.93;;;3.28;;
75890;SDS011;64571;47.512;19.054;2023-05-16T06:50:58;6.33;;;3.40;;
75890;SDS011;64571;47.512;19.054;2023-05-16T06:54:01;7.35;;;3.25;;
75890;SDS011;64571;47.512;19.054;2023-05-16T06:57:05;7.68;;;3.87;;
75890;SDS011;64571;47.512;19.054;2023-05-16T07:00:09;11.20;;;3.67;;
75890;SDS011;64571;47.512;19.054;2023-05-16T07:03:12;9.13;;;3.83;;
75890;SDS011;64571;47.512;19.054;2023-05-16T07:06:15;11.37;;;4.10;;
75890;SDS011;64571;47.512;19.054;2023-05-16T07:09:18;7.25;;;3.28;;
75890;SDS011;64571;47.512;19.054;2023-05-16T07:12:21;7.50;;;3.33;;
75890;SDS011;64571;47.512;19.054;2023-05-16T07:15:23;7.57;;;3.78;;
75890;SDS011;64571;47.512;19.054;2023-05-16T07:18:26;8.55;;;3.75;;
75890;SDS011;64571;47.512;19.054;2023-05-16T07:21:29;9.47;;;3.97;;
75890;SDS011;64571;47.512;19.054;2023-05-16T07:24:32;9.73;;;4.65;;
75890;SDS011;64571;47.512;19.054;2023-05-16T07:27:34;11.52;;;3.50;;
75890;SDS011;64571;47.512;19.054;2023-05-16T07:30:37;7.93;;;4.15;;
75890;SDS011;64571;47.512;19.054;2023-05-16T07:33:39;7.62;;;4.40;;
75890;SDS011;64571;47.512;19.054;2023-05-16T07:36:42;10.20;;;5.30;;
75890;SDS011;64571;47.512;19.054;2023-05-16T07:39:45;10.32;;;4.57;;
75890;SDS011;64571;47.512;19.054;2023-05-16T07:42:47;8.75;;;4.70;;
75890;SDS011;64571;47.512;19.054;2023-05-16T07:45:50;10.25;;;5.00;;
75890;SDS011;64571;47.512;19.054;2023-05-16T07:48:53;8.05;;;4.28;;
75890;SDS011;64571;47.512;19.054;2023-05-16T07:51:56;8.90;;;5.37;;
75890;SDS011;64571;47.512;19.054;2023-05-16T07:54:58;8.77;;;4.55;;
75890;SDS011;64571;47.512;19.054;2023-05-16T07:58:01;11.85;;;4.97;;
75890;SDS011;64571;47.512;19.054;2023-05-16T08:01:04;9.07;;;4.68;;
75890;SDS011;64571;47.512;19.054;2023-05-16T08:04:07;8.38;;;4.75;;
75890;SDS011;64571;47.512;19.054;2023-05-16T08:07:10;10.73;;;5.17;;
75890;SDS011;64571;47.512;19.054;2023-05-16T08:10:13;10.75;;;4.87;;
75890;SDS011;64571;47.512;19.054;2023-05-16T08:13:15;11.77;;;5.32;;
75890;SDS011;64571;47.512;19.054;2023-05-16T08:16:18;9.63;;;4.82;;
75890;SDS011;64571;47.512;19.054;2023-05-16T08:19:20;8.48;;;4.10;;
75890;SDS011;64571;47.512;19.054;2023-05-16T08:22:24;9.77;;;5.03;;
75890;SDS011;64571;47.512;19.054;2023-05-16T08:25:27;11.73;;;6.18;;
75890;SDS011;64571;47.512;19.054;2023-05-16T08:28:30;10.18;;;5.82;;
75890;SDS011;64571;47.512;19.054;2023-05-16T08:31:32;8.63;;;4.95;;
75890;SDS011;64571;47.512;19.054;2023-05-16T08:34:35;8.85;;;5.15;;
75890;SDS011;64571;47.512;19.054;2023-05-16T08:37:38;8.27;;;5.20;;
75890;SDS011;64571;47.512;19.054;2023-05-16T08:40:41;11.43;;;5.70;;
75890;SDS011;64571;47.512;19.054;2023-05-16T08:43:44;10.50;;;5.43;;
75890;SDS011;64571;47.512;19.054;2023-05-16T08:46:49;11.52;;;5.80;;
75890;SDS011;64571;47.512;19.054;2023-05-16T08:49:54;13.13;;;5.78;;
75890;SDS011;64571;47.512;19.054;2023-05-16T08:53:00;11.13;;;5.60;;
75890;SDS011;64571;47.512;19.054;2023-05-16T08:56:08;10.35;;;5.25;;
75890;SDS011;64571;47.512;19.054;2023-05-16T08:59:11;9.60;;;5.72;;
75890;SDS011;64571;47.512;19.054;2023-05-16T09:02:14;9.30;;;5.05;;
75890;SDS011;64571;47.512;19.054;2023-05-16T09:05:18;9.63;;;5.80;;
75890;SDS011;64571;47.512;19.054;2023-05-16T09:08:20;10.47;;;5.60;;
75890;SDS011;64571;47.512;19.054;2023-05-16T09:11:23;12.43;;;5.90;;
75890;SDS011;64571;47.512;19.054;2023-05-16T09:14:28;11.57;;;5.53;;
75890;SDS011;64571;47.512;19.054;2023-05-16T09:17:34;11.65;;;6.20;;
75890;SDS011;64571;47.512;19.054;2023-05-16T09:20:45;9.45;;;5.65;;
75890;SDS011;64571;47.512;19.054;2023-05-16T09:23:51;14.07;;;5.87;;
75890;SDS011;64571;47.512;19.054;2023-05-16T09:26:53;13.00;;;6.32;;
75890;SDS011;64571;47.512;19.054;2023-05-16T09:29:57;13.60;;;5.95;;
75890;SDS011;64571;47.512;19.054;2023-05-16T09:33:00;10.73;;;5.82;;
75890;SDS011;64571;47.512;19.054;2023-05-16T09:36:03;12.30;;;6.00;;
75890;SDS011;64571;47.512;19.054;2023-05-16T09:39:06;14.13;;;7.70;;
75890;SDS011;64571;47.512;19.054;2023-05-16T09:42:10;11.95;;;6.75;;
75890;SDS011;64571;47.512;19.054;2023-05-16T09:45:13;12.60;;;7.12;;
75890;SDS011;64571;47.512;19.054;2023-05-16T09:48:16;13.98;;;7.00;;
75890;SDS011;64571;47.512;19.054;2023-05-16T09:51:22;12.95;;;7.10;;
75890;SDS011;64571;47.512;19.054;2023-05-16T09:54:31;12.67;;;7.37;;
75890;SDS011;64571;47.512;19.054;2023-05-16T09:57:38;14.85;;;7.05;;
75890;SDS011;64571;47.512;19.054;2023-05-16T10:00:44;10.82;;;6.45;;
75890;SDS011;64571;47.512;19.054;2023-05-16T10:03:48;14.35;;;7.47;;
75890;SDS011;64571;47.512;19.054;2023-05-16T10:06:53;14.40;;;8.40;;
75890;SDS011;64571;47.512;19.054;2023-05-16T10:09:59;12.83;;;7.37;;
75890;SDS011;64571;47.512;19.054;2023-05-16T10:13:06;12.57;;;7.55;;
75890;SDS011;64571;47.512;19.054;2023-05-16T10:16:11;18.45;;;8.02;;
75890;SDS011;64571;47.512;19.054;2023-05-16T10:19:15;16.52;;;8.05;;
75890;SDS011;64571;47.512;19.054;2023-05-16T10:22:21;13.85;;;7.05;;
75890;SDS011;64571;47.512;19.054;2023-05-16T10:25:31;11.40;;;7.07;;
75890;SDS011;64571;47.512;19.054;2023-05-16T10:28:35;13.30;;;8.48;;
75890;SDS011;64571;47.512;19.054;2023-05-16T10:31:37;14.90;;;8.38;;
75890;SDS011;64571;47.512;19.054;2023-05-16T10:34:40;13.40;;;8.18;;
75890;SDS011;64571;47.512;19.054;2023-05-16T10:37:47;15.88;;;8.90;;
75890;SDS011;64571;47.512;19.054;2023-05-16T10:41:00;15.80;;;9.00;;
75890;SDS011;64571;47.512;19.054;2023-05-16T10:44:07;13.65;;;7.95;;
75890;SDS011;64571;47.512;19.054;2023-05-16T10:47:18;14.43;;;7.95;;
75890;SDS011;64571;47.512;19.054;2023-05-16T10:53:36;15.25;;;8.38;;
75890;SDS011;64571;47.512;19.054;2023-05-16T10:56:38;17.33;;;10.60;;
75890;SDS011;64571;47.512;19.054;2023-05-16T10:59:45;19.87;;;9.60;;
75890;SDS011;64571;47.512;19.054;2023-05-16T11:02:49;15.52;;;8.40;;
75890;SDS011;64571;47.512;19.054;2023-05-16T11:05:51;14.50;;;9.35;;
75890;SDS011;64571;47.512;19.054;2023-05-16T11:09:04;15.20;;;8.68;;
75890;SDS011;64571;47.512;19.054;2023-05-16T11:12:11;14.33;;;9.10;;
75890;SDS011;64571;47.512;19.054;2023-05-16T11:15:22;14.45;;;8.43;;
75890;SDS011;64571;47.512;19.054;2023-05-16T11:18:26;15.88;;;9.50;;
75890;SDS011;64571;47.512;19.054;2023-05-16T11:25:12;16.70;;;10.52;;
75890;SDS011;64571;47.512;19.054;2023-05-16T11:28:14;14.77;;;9.40;;
75890;SDS011;64571;47.512;19.054;2023-05-16T11:31:17;14.48;;;9.23;;
75890;SDS011;64571;47.512;19.054;2023-05-16T11:34:19;13.38;;;9.13;;
75890;SDS011;64571;47.512;19.054;2023-05-16T11:37:22;12.57;;;8.77;;
75890;SDS011;64571;47.512;19.054;2023-05-16T11:40:25;13.07;;;8.63;;
75890;SDS011;64571;47.512;19.054;2023-05-16T11:43:28;19.50;;;8.00;;
75890;SDS011;64571;47.512;19.054;2023-05-16T11:46:32;14.35;;;8.85;;
75890;SDS011;64571;47.512;19.054;2023-05-16T11:49:35;12.90;;;8.93;;
75890;SDS011;64571;47.512;19.054;2023-05-16T11:52:37;11.25;;;7.10;;
75890;SDS011;64571;47.512;19.054;2023-05-16T11:55:41;11.85;;;7.80;;
75890;SDS011;64571;47.512;19.054;2023-05-16T11:58:44;12.00;;;7.87;;
75890;SDS011;64571;47.512;19.054;2023-05-16T12:01:47;14.27;;;7.97;;
75890;SDS011;64571;47.512;19.054;2023-05-16T12:04:50;14.87;;;8.18;;
75890;SDS011;64571;47.512;19.054;2023-05-16T12:07:53;12.63;;;7.47;;
75890;SDS011;64571;47.512;19.054;2023-05-16T12:10:55;11.20;;;6.80;;
75890;SDS011;64571;47.512;19.054;2023-05-16T12:13:58;9.47;;;6.10;;
75890;SDS011;64571;47.512;19.054;2023-05-16T12:17:01;11.35;;;6.53;;
75890;SDS011;64571;47.512;19.054;2023-05-16T12:20:06;10.50;;;5.72;;
75890;SDS011;64571;47.512;19.054;2023-05-16T12:23:15;11.70;;;6.43;;
75890;SDS011;64571;47.512;19.054;2023-05-16T12:26:24;11.32;;;5.95;;
75890;SDS011;64571;47.512;19.054;2023-05-16T12:29:32;12.07;;;5.67;;
75890;SDS011;64571;47.512;19.054;2023-05-16T12:32:37;12.18;;;5.32;;
75890;SDS011;64571;47.512;19.054;2023-05-16T12:35:41;9.65;;;5.82;;
75890;SDS011;64571;47.512;19.054;2023-05-16T12:38:45;10.63;;;6.12;;
75890;SDS011;64571;47.512;19.054;2023-05-16T12:41:49;12.35;;;5.22;;
75890;SDS011;64571;47.512;19.054;2023-05-16T12:44:54;9.03;;;4.37;;
75890;SDS011;64571;47.512;19.054;2023-05-16T12:48:02;8.40;;;5.20;;
75890;SDS011;64571;47.512;19.054;2023-05-16T12:51:13;11.85;;;6.12;;
75890;SDS011;64571;47.512;19.054;2023-05-16T12:54:17;11.52;;;5.62;;
75890;SDS011;64571;47.512;19.054;2023-05-16T12:57:20;13.35;;;5.80;;
75890;SDS011;64571;47.512;19.054;2023-05-16T13:00:22;11.10;;;5.30;;
75890;SDS011;64571;47.512;19.054;2023-05-16T13:03:25;11.00;;;6.80;;
75890;SDS011;64571;47.512;19.054;2023-05-16T13:06:29;15.25;;;6.18;;
75890;SDS011;64571;47.512;19.054;2023-05-16T13:09:46;12.63;;;6.03;;
75890;SDS011;64571;47.512;19.054;2023-05-16T13:12:48;13.05;;;5.93;;
75890;SDS011;64571;47.512;19.054;2023-05-16T13:15:51;16.83;;;6.40;;
75890;SDS011;64571;47.512;19.054;2023-05-16T13:18:54;11.63;;;5.75;;
75890;SDS011;64571;47.512;19.054;2023-05-16T13:21:56;16.17;;;7.30;;
75890;SDS011;64571;47.512;19.054;2023-05-16T13:24:59;13.23;;;6.43;;
75890;SDS011;64571;47.512;19.054;2023-05-16T13:28:01;12.90;;;6.03;;
75890;SDS011;64571;47.512;19.054;2023-05-16T13:31:04;12.40;;;6.17;;
75890;SDS011;64571;47.512;19.054;2023-05-16T13:34:07;11.55;;;6.47;;
75890;SDS011;64571;47.512;19.054;2023-05-16T13:37:09;15.07;;;6.55;;
75890;SDS011;64571;47.512;19.054;2023-05-16T13:40:12;14.70;;;6.28;;
75890;SDS011;64571;47.512;19.054;2023-05-16T13:43:14;13.40;;;6.40;;
75890;SDS011;64571;47.512;19.054;2023-05-16T13:46:17;13.47;;;6.60;;
75890;SDS011;64571;47.512;19.054;2023-05-16T13:49:20;13.70;;;6.25;;
75890;SDS011;64571;47.512;19.054;2023-05-16T13:52:23;12.25;;;6.55;;
75890;SDS011;64571;47.512;19.054;2023-05-16T13:55:25;10.52;;;6.40;;
75890;SDS011;64571;47.512;19.054;2023-05-16T13:58:28;13.32;;;6.00;;
75890;SDS011;64571;47.512;19.054;2023-05-16T14:01:31;13.50;;;6.30;;
75890;SDS011;64571;47.512;19.054;2023-05-16T14:04:34;16.37;;;8.68;;
75890;SDS011;64571;47.512;19.054;2023-05-16T14:07:37;14.27;;;6.95;;
75890;SDS011;64571;47.512;19.054;2023-05-16T14:10:39;11.90;;;6.00;;
75890;SDS011;64571;47.512;19.054;2023-05-16T14:13:42;10.43;;;5.43;;
75890;SDS011;64571;47.512;19.054;2023-05-16T14:16:45;11.90;;;6.50;;
75890;SDS011;64571;47.512;19.054;2023-05-16T14:19:48;12.90;;;7.45;;
75890;SDS011;64571;47.512;19.054;2023-05-16T14:22:51;10.00;;;5.78;;
75890;SDS011;64571;47.512;19.054;2023-05-16T14:25:53;10.32;;;5.07;;
75890;SDS011;64571;47.512;19.054;2023-05-16T14:28:57;10.40;;;5.40;;
75890;SDS011;64571;47.512;19.054;2023-05-16T14:31:59;13.60;;;5.73;;
75890;SDS011;64571;47.512;19.054;2023-05-16T14:35:02;9.55;;;5.97;;
75890;SDS011;64571;47.512;19.054;2023-05-16T14:38:06;15.10;;;5.97;;
75890;SDS011;64571;47.512;19.054;2023-05-16T14:41:09;13.32;;;6.37;;
75890;SDS011;64571;47.512;19.054;2023-05-16T14:44:11;10.73;;;5.87;;
75890;SDS011;64571;47.512;19.054;2023-05-16T14:47:14;11.73;;;5.90;;
75890;SDS011;64571;47.512;19.054;2023-05-16T14:50:16;10.65;;;5.62;;
75890;SDS011;64571;47.512;19.054;2023-05-16T14:53:19;11.35;;;5.97;;
75890;SDS011;64571;47.512;19.054;2023-05-16T14:56:22;11.75;;;6.18;;
75890;SDS011;64571;47.512;19.054;2023-05-16T14:59:28;14.23;;;6.65;;
75890;SDS011;64571;47.512;19.054;2023-05-16T15:02:30;12.00;;;6.50;;
75890;SDS011;64571;47.512;19.054;2023-05-16T15:05:33;17.95;;;7.32;;
75890;SDS011;64571;47.512;19.054;2023-05-16T15:08:35;11.43;;;6.87;;
75890;SDS011;64571;47.512;19.054;2023-05-16T15:11:40;14.07;;;6.60;;
75890;SDS011;64571;47.512;19.054;2023-05-16T15:14:42;12.95;;;7.18;;
75890;SDS011;64571;47.512;19.054;2023-05-16T15:17:45;12.30;;;6.13;;
75890;SDS011;64571;47.512;19.054;2023-05-16T15:20:48;12.77;;;6.82;;
75890;SDS011;64571;47.512;19.054;2023-05-16T15:23:53;13.65;;;6.62;;
75890;SDS011;64571;47.512;19.054;2023-05-16T15:26:56;10.18;;;6.75;;
75890;SDS011;64571;47.512;19.054;2023-05-16T15:29:59;13.93;;;7.57;;
75890;SDS011;64571;47.512;19.054;2023-05-16T15:33:02;13.73;;;7.33;;
75890;SDS011;64571;47.512;19.054;2023-05-16T15:36:05;17.80;;;7.60;;
75890;SDS011;64571;47.512;19.054;2023-05-16T15:39:07;16.77;;;8.05;;
75890;SDS011;64571;47.512;19.054;2023-05-16T15:42:10;13.15;;;7.70;;
75890;SDS011;64571;47.512;19.054;2023-05-16T15:45:12;19.25;;;8.02;;
75890;SDS011;64571;47.512;19.054;2023-05-16T15:48:15;14.60;;;8.40;;
75890;SDS011;64571;47.512;19.054;2023-05-16T15:51:18;19.00;;;9.90;;
75890;SDS011;64571;47.512;19.054;2023-05-16T15:54:20;15.18;;;7.80;;
75890;SDS011;64571;47.512;19.054;2023-05-16T15:57:23;16.05;;;8.23;;
75890;SDS011;64571;47.512;19.054;2023-05-16T16:00:25;18.20;;;9.00;;
75890;SDS011;64571;47.512;19.054;2023-05-16T16:03:28;14.67;;;8.33;;
75890;SDS011;64571;47.512;19.054;2023-05-16T16:06:31;15.65;;;8.70;;
75890;SDS011;64571;47.512;19.054;2023-05-16T16:09:34;16.90;;;8.95;;
75890;SDS011;64571;47.512;19.054;2023-05-16T16:12:36;16.17;;;8.13;;
75890;SDS011;64571;47.512;19.054;2023-05-16T16:15:39;15.77;;;8.88;;
75890;SDS011;64571;47.512;19.054;2023-05-16T16:18:43;17.30;;;8.90;;
75890;SDS011;64571;47.512;19.054;2023-05-16T16:21:46;13.65;;;7.90;;
75890;SDS011;64571;47.512;19.054;2023-05-16T16:24:49;16.80;;;8.80;;
75890;SDS011;64571;47.512;19.054;2023-05-16T16:27:51;20.45;;;9.30;;
75890;SDS011;64571;47.512;19.054;2023-05-16T16:30:54;16.02;;;9.20;;
75890;SDS011;64571;47.512;19.054;2023-05-16T16:33:57;17.23;;;8.93;;
75890;SDS011;64571;47.512;19.054;2023-05-16T16:36:59;16.52;;;8.52;;
75890;SDS011;64571;47.512;19.054;2023-05-16T16:40:02;14.87;;;8.75;;
75890;SDS011;64571;47.512;19.054;2023-05-16T16:43:05;16.60;;;9.50;;
75890;SDS011;64571;47.512;19.054;2023-05-16T16:46:08;20.23;;;9.13;;
75890;SDS011;64571;47.512;19.054;2023-05-16T16:49:11;20.60;;;10.27;;
75890;SDS011;64571;47.512;19.054;2023-05-16T16:52:14;15.73;;;9.95;;
75890;SDS011;64571;47.512;19.054;2023-05-16T16:55:16;18.50;;;11.43;;
75890;SDS011;64571;47.512;19.054;2023-05-16T16:58:19;16.45;;;10.00;;
75890;SDS011;64571;47.512;19.054;2023-05-16T17:01:22;19.10;;;10.55;;
75890;SDS011;64571;47.512;19.054;2023-05-16T17:04:25;17.33;;;10.47;;
75890;SDS011;64571;47.512;19.054;2023-05-16T17:07:27;17.48;;;10.40;;
75890;SDS011;64571;47.512;19.054;2023-05-16T17:10:30;17.12;;;9.45;;
75890;SDS011;64571;47.512;19.054;2023-05-16T17:13:32;16.92;;;9.05;;
75890;SDS011;64571;47.512;19.054;2023-05-16T17:16:38;16.48;;;9.35;;
75890;SDS011;64571;47.512;19.054;2023-05-16T17:19:43;17.97;;;9.97;;
75890;SDS011;64571;47.512;19.054;2023-05-16T17:22:47;19.37;;;9.82;;
75890;SDS011;64571;47.512;19.054;2023-05-16T17:25:49;17.50;;;9.95;;
75890;SDS011;64571;47.512;19.054;2023-05-16T17:28:52;16.30;;;10.18;;
75890;SDS011;64571;47.512;19.054;2023-05-16T17:31:55;16.00;;;10.32;;
75890;SDS011;64571;47.512;19.054;2023-05-16T17:34:58;17.50;;;9.63;;
75890;SDS011;64571;47.512;19.054;2023-05-16T17:38:04;18.25;;;10.10;;
75890;SDS011;64571;47.512;19.054;2023-05-16T17:41:07;16.83;;;10.27;;
75890;SDS011;64571;47.512;19.054;2023-05-16T17:44:09;19.37;;;10.95;;
75890;SDS011;64571;47.512;19.054;2023-05-16T17:47:12;16.95;;;9.90;;
75890;SDS011;64571;47.512;19.054;2023-05-16T17:50:14;16.70;;;9.20;;
75890;SDS011;64571;47.512;19.054;2023-05-16T17:53:17;17.25;;;9.00;;
75890;SDS011;64571;47.512;19.054;2023-05-16T17:56:20;16.67;;;9.20;;
75890;SDS011;64571;47.512;19.054;2023-05-16T17:59:22;17.35;;;9.25;;
75890;SDS011;64571;47.512;19.054;2023-05-16T18:02:25;16.75;;;8.70;;
75890;SDS011;64571;47.512;19.054;2023-05-16T18:05:28;21.50;;;8.60;;
75890;SDS011;64571;47.512;19.054;2023-05-16T18:08:31;18.58;;;9.00;;
75890;SDS011;64571;47.512;19.054;2023-05-16T18:11:34;13.73;;;8.38;;
75890;SDS011;64571;47.512;19.054;2023-05-16T18:14:39;15.07;;;7.82;;